createdAt,value
2019-06-10T00:04:40.000Z,14.76
2019-06-10T00:09:29.000Z,14.78
2019-06-10T00:14:16.000Z,14.80
2019-06-10T00:19:03.000Z,14.81
2019-06-10T00:23:50.000Z,14.78
2019-06-10T00:28:38.000Z,14.71
2019-06-10T00:33:25.000Z,14.60
2019-06-10T00:38:12.000Z,14.43
2019-06-10T00:43:00.000Z,14.30
2019-06-10T00:47:47.000Z,14.13
2019-06-10T00:52:34.000Z,13.97
2019-06-10T00:57:20.000Z,13.84
2019-06-10T01:02:08.000Z,13.73
2019-06-10T01:06:54.000Z,13.61
2019-06-10T01:11:42.000Z,13.49
2019-06-10T01:16:30.000Z,13.36
2019-06-10T01:21:16.000Z,13.27
2019-06-10T01:26:03.000Z,13.18
2019-06-10T01:30:51.000Z,13.08
2019-06-10T01:35:38.000Z,12.92
2019-06-10T01:40:26.000Z,12.80
2019-06-10T01:45:13.000Z,12.70
2019-06-10T01:50:00.000Z,12.59
2019-06-10T01:54:47.000Z,12.52
2019-06-10T01:59:35.000Z,12.44
2019-06-10T02:04:22.000Z,12.34
2019-06-10T02:09:09.000Z,12.29
2019-06-10T02:13:56.000Z,12.28
2019-06-10T02:18:44.000Z,12.26
2019-06-10T02:23:31.000Z,12.22
2019-06-10T02:28:17.000Z,12.20
2019-06-10T02:33:05.000Z,12.22
2019-06-10T02:37:53.000Z,12.21
2019-06-10T02:42:39.000Z,12.15
2019-06-10T02:47:27.000Z,12.17
2019-06-10T02:52:14.000Z,12.21
2019-06-10T02:57:01.000Z,12.21
2019-06-10T03:01:50.000Z,12.21
2019-06-10T03:06:37.000Z,12.19
2019-06-10T03:11:26.000Z,12.17
2019-06-10T03:16:12.000Z,12.15
2019-06-10T03:21:01.000Z,12.22
2019-06-10T03:25:48.000Z,12.35
2019-06-10T03:30:36.000Z,12.40
2019-06-10T03:35:23.000Z,12.42
2019-06-10T03:40:12.000Z,12.51
2019-06-10T03:45:00.000Z,12.55
2019-06-10T03:49:48.000Z,12.51
2019-06-10T03:54:34.000Z,12.49
2019-06-10T03:59:22.000Z,12.60
2019-06-10T04:04:10.000Z,12.69
2019-06-10T04:08:59.000Z,12.73
2019-06-10T04:13:47.000Z,12.76
2019-06-10T04:18:35.000Z,12.83
2019-06-10T04:23:21.000Z,12.99
2019-06-10T04:28:09.000Z,13.14
2019-06-10T04:32:58.000Z,13.26
2019-06-10T04:37:45.000Z,13.37
2019-06-10T04:42:34.000Z,13.50
2019-06-10T04:47:22.000Z,13.66
2019-06-10T04:52:09.000Z,13.82
2019-06-10T04:56:56.000Z,13.92
2019-06-10T05:01:44.000Z,14.01
2019-06-10T05:03:42.000Z,14.05
2019-06-10T05:04:42.000Z,14.07
2019-06-10T05:05:39.000Z,14.11
2019-06-10T05:06:38.000Z,14.12
2019-06-10T05:07:38.000Z,14.15
2019-06-10T05:08:36.000Z,14.19
2019-06-10T05:09:34.000Z,14.21
2019-06-10T05:10:34.000Z,14.25
2019-06-10T05:12:32.000Z,14.32
2019-06-10T05:13:30.000Z,14.36
2019-06-10T05:14:28.000Z,14.37
2019-06-10T05:15:27.000Z,14.38
2019-06-10T05:16:25.000Z,14.38
2019-06-10T05:17:24.000Z,14.39
2019-06-10T05:18:24.000Z,14.39
2019-06-10T05:19:21.000Z,14.38
2019-06-10T05:20:20.000Z,14.39
2019-06-10T05:21:19.000Z,14.40
2019-06-10T05:22:18.000Z,14.40
2019-06-10T05:23:17.000Z,14.40
2019-06-10T05:24:15.000Z,14.43
2019-06-10T05:25:14.000Z,14.44
2019-06-10T05:27:12.000Z,14.50
2019-06-10T05:28:10.000Z,14.53
2019-06-10T05:30:07.000Z,14.60
2019-06-10T05:32:05.000Z,14.69
2019-06-10T05:34:03.000Z,14.79
2019-06-10T05:36:00.000Z,14.87
2019-06-10T05:36:59.000Z,14.89
2019-06-10T05:37:58.000Z,14.91
2019-06-10T05:38:56.000Z,14.93
2019-06-10T05:40:52.000Z,14.95
2019-06-10T05:42:50.000Z,15.04
2019-06-10T05:43:48.000Z,15.07
2019-06-10T05:44:47.000Z,15.12
2019-06-10T05:45:46.000Z,15.17
2019-06-10T05:46:44.000Z,15.22
2019-06-10T05:47:44.000Z,15.28
2019-06-10T05:48:42.000Z,15.36
2019-06-10T05:49:41.000Z,15.42
2019-06-10T05:50:39.000Z,15.49
2019-06-10T05:51:39.000Z,15.56
2019-06-10T05:52:37.000Z,15.64
2019-06-10T05:53:36.000Z,15.73
2019-06-10T05:54:34.000Z,15.81
2019-06-10T05:55:33.000Z,15.90
2019-06-10T05:56:31.000Z,16.00
2019-06-10T05:58:30.000Z,16.19
2019-06-10T06:00:27.000Z,16.36
2019-06-10T06:01:25.000Z,16.45
2019-06-10T06:02:25.000Z,16.53
2019-06-10T06:03:24.000Z,16.60
2019-06-10T06:04:21.000Z,16.66
2019-06-10T06:05:20.000Z,16.74
2019-06-10T06:06:19.000Z,16.81
2019-06-10T06:07:17.000Z,16.86
2019-06-10T06:08:16.000Z,16.94
2019-06-10T06:10:13.000Z,17.03
2019-06-10T06:11:13.000Z,17.07
2019-06-10T06:12:11.000Z,17.12
2019-06-10T06:13:10.000Z,17.16
2019-06-10T06:14:09.000Z,17.20
2019-06-10T06:15:07.000Z,17.26
2019-06-10T06:16:07.000Z,17.30
2019-06-10T06:17:04.000Z,17.34
2019-06-10T06:18:03.000Z,17.38
2019-06-10T06:19:02.000Z,17.41
2019-06-10T06:20:59.000Z,17.46
2019-06-10T06:21:58.000Z,17.48
2019-06-10T06:22:57.000Z,17.50
2019-06-10T06:23:55.000Z,17.52
2019-06-10T06:24:54.000Z,17.54
2019-06-10T06:26:53.000Z,17.60
2019-06-10T06:27:51.000Z,17.65
2019-06-10T06:28:49.000Z,17.69
2019-06-10T06:29:48.000Z,17.71
2019-06-10T06:30:46.000Z,17.75
2019-06-10T06:31:45.000Z,17.78
2019-06-10T06:32:44.000Z,17.83
2019-06-10T06:33:42.000Z,17.85
2019-06-10T06:34:41.000Z,17.88
2019-06-10T06:35:40.000Z,17.91
2019-06-10T06:36:39.000Z,17.93
2019-06-10T06:37:37.000Z,17.96
2019-06-10T06:38:37.000Z,17.98
2019-06-10T06:39:36.000Z,18.01
2019-06-10T06:40:35.000Z,18.03
2019-06-10T06:41:32.000Z,18.06
2019-06-10T06:42:31.000Z,18.07
2019-06-10T06:43:30.000Z,18.08
2019-06-10T06:44:29.000Z,18.10
2019-06-10T06:45:27.000Z,18.09
2019-06-10T06:46:26.000Z,18.09
2019-06-10T06:47:25.000Z,18.08
2019-06-10T06:49:22.000Z,18.08
2019-06-10T06:51:21.000Z,18.12
2019-06-10T06:53:17.000Z,18.17
2019-06-10T06:54:16.000Z,18.21
2019-06-10T06:55:14.000Z,18.25
2019-06-10T06:56:13.000Z,18.30
2019-06-10T06:57:12.000Z,18.36
2019-06-10T06:58:11.000Z,18.42
2019-06-10T06:59:09.000Z,18.48
2019-06-10T07:00:08.000Z,18.50
2019-06-10T07:01:07.000Z,18.55
2019-06-10T07:02:05.000Z,18.58
2019-06-10T07:03:04.000Z,18.64
2019-06-10T07:04:03.000Z,18.69
2019-06-10T07:06:01.000Z,18.81
2019-06-10T07:06:59.000Z,18.83
2019-06-10T07:07:58.000Z,18.98
2019-06-10T07:08:56.000Z,19.06
2019-06-10T07:09:55.000Z,19.12
2019-06-10T07:10:54.000Z,19.23
2019-06-10T07:11:54.000Z,19.31
2019-06-10T07:12:51.000Z,19.38
2019-06-10T07:13:50.000Z,19.45
2019-06-10T07:14:50.000Z,19.52
2019-06-10T07:15:47.000Z,19.60
2019-06-10T07:16:46.000Z,19.66
2019-06-10T07:17:45.000Z,19.73
2019-06-10T07:18:44.000Z,19.81
2019-06-10T07:19:42.000Z,19.90
2019-06-10T07:20:42.000Z,19.99
2019-06-10T07:21:41.000Z,20.06
2019-06-10T07:22:39.000Z,20.14
2019-06-10T07:23:38.000Z,20.19
2019-06-10T07:24:37.000Z,20.26
2019-06-10T07:25:36.000Z,20.34
2019-06-10T07:26:34.000Z,20.43
2019-06-10T07:27:32.000Z,20.54
2019-06-10T07:28:32.000Z,20.66
2019-06-10T07:29:31.000Z,20.80
2019-06-10T07:30:29.000Z,20.95
2019-06-10T07:31:28.000Z,21.11
2019-06-10T07:32:27.000Z,21.26
2019-06-10T07:33:25.000Z,21.38
2019-06-10T07:34:23.000Z,21.46
2019-06-10T07:35:22.000Z,21.49
2019-06-10T07:36:22.000Z,21.52
2019-06-10T07:38:19.000Z,21.43
2019-06-10T07:39:16.000Z,21.37
2019-06-10T07:40:16.000Z,21.27
2019-06-10T07:41:14.000Z,21.17
2019-06-10T07:42:13.000Z,21.06
2019-06-10T07:43:13.000Z,20.94
2019-06-10T07:44:11.000Z,20.79
2019-06-10T07:45:11.000Z,20.65
2019-06-10T07:46:09.000Z,20.52
2019-06-10T07:47:07.000Z,20.41
2019-06-10T07:49:04.000Z,20.21
2019-06-10T07:50:02.000Z,20.11
2019-06-10T07:51:59.000Z,19.95
2019-06-10T07:52:59.000Z,19.87
2019-06-10T07:53:57.000Z,19.82
2019-06-10T07:54:55.000Z,19.76
2019-06-10T07:55:55.000Z,19.72
2019-06-10T07:56:54.000Z,19.66
2019-06-10T07:57:52.000Z,19.59
2019-06-10T07:58:51.000Z,19.51
2019-06-10T08:00:48.000Z,19.37
2019-06-10T08:02:45.000Z,19.28
2019-06-10T08:03:45.000Z,19.25
2019-06-10T08:04:43.000Z,19.21
2019-06-10T08:05:43.000Z,19.18
2019-06-10T08:07:39.000Z,19.15
2019-06-10T08:09:37.000Z,19.14
2019-06-10T08:11:35.000Z,19.16
2019-06-10T08:13:32.000Z,19.17
2019-06-10T08:15:29.000Z,19.15
2019-06-10T08:17:27.000Z,19.16
2019-06-10T08:19:24.000Z,19.23
2019-06-10T08:21:21.000Z,19.32
2019-06-10T08:23:19.000Z,19.43
2019-06-10T08:25:17.000Z,19.53
2019-06-10T08:26:15.000Z,19.59
2019-06-10T08:27:14.000Z,19.64
2019-06-10T08:28:14.000Z,19.67
2019-06-10T08:29:12.000Z,19.69
2019-06-10T08:30:10.000Z,19.71
2019-06-10T08:31:09.000Z,19.72
2019-06-10T08:32:09.000Z,19.70
2019-06-10T08:33:06.000Z,19.70
2019-06-10T08:34:05.000Z,19.69
2019-06-10T08:35:05.000Z,19.70
2019-06-10T08:36:03.000Z,19.73
2019-06-10T08:37:01.000Z,19.78
2019-06-10T08:39:00.000Z,19.91
2019-06-10T08:39:58.000Z,20.00
2019-06-10T08:40:56.000Z,20.11
2019-06-10T08:41:55.000Z,20.21
2019-06-10T08:42:54.000Z,20.33
2019-06-10T08:43:52.000Z,20.44
2019-06-10T08:44:51.000Z,20.54
2019-06-10T08:45:50.000Z,20.62
2019-06-10T08:46:48.000Z,20.74
2019-06-10T08:47:47.000Z,20.82
2019-06-10T08:48:46.000Z,20.91
2019-06-10T08:49:45.000Z,20.99
2019-06-10T08:50:43.000Z,21.06
2019-06-10T08:51:43.000Z,21.11
2019-06-10T08:52:42.000Z,21.20
2019-06-10T08:53:41.000Z,21.27
2019-06-10T08:54:39.000Z,21.30
2019-06-10T08:55:38.000Z,21.33
2019-06-10T08:56:36.000Z,21.33
2019-06-10T08:57:35.000Z,21.32
2019-06-10T08:58:35.000Z,21.32
2019-06-10T08:59:33.000Z,21.32
2019-06-10T09:00:31.000Z,21.35
2019-06-10T09:01:30.000Z,21.38
2019-06-10T09:02:29.000Z,21.43
2019-06-10T09:03:27.000Z,21.49
2019-06-10T09:04:26.000Z,21.56
2019-06-10T09:05:25.000Z,21.63
2019-06-10T09:06:23.000Z,21.68
2019-06-10T09:07:22.000Z,21.73
2019-06-10T09:08:21.000Z,21.76
2019-06-10T09:09:21.000Z,21.79
2019-06-10T09:10:19.000Z,21.85
2019-06-10T09:11:18.000Z,21.91
2019-06-10T09:12:16.000Z,21.98
2019-06-10T09:13:15.000Z,22.02
2019-06-10T09:14:13.000Z,22.07
2019-06-10T09:15:12.000Z,22.10
2019-06-10T09:16:11.000Z,22.15
2019-06-10T09:17:09.000Z,22.16
2019-06-10T09:18:09.000Z,22.15
2019-06-10T09:19:07.000Z,22.14
2019-06-10T09:20:06.000Z,22.15
2019-06-10T09:21:06.000Z,22.19
2019-06-10T09:22:04.000Z,22.24
2019-06-10T09:23:02.000Z,22.31
2019-06-10T09:24:02.000Z,22.36
2019-06-10T09:26:00.000Z,22.46
2019-06-10T09:26:58.000Z,22.51
2019-06-10T09:27:56.000Z,22.55
2019-06-10T09:28:56.000Z,22.54
2019-06-10T09:29:54.000Z,22.55
2019-06-10T09:30:53.000Z,22.53
2019-06-10T09:31:51.000Z,22.52
2019-06-10T09:32:50.000Z,22.53
2019-06-10T09:33:48.000Z,22.56
2019-06-10T09:34:47.000Z,22.63
2019-06-10T09:35:47.000Z,22.77
2019-06-10T09:36:46.000Z,22.96
2019-06-10T09:37:44.000Z,23.19
2019-06-10T09:38:42.000Z,23.41
2019-06-10T09:39:41.000Z,23.65
2019-06-10T09:40:40.000Z,23.86
2019-06-10T09:41:39.000Z,24.02
2019-06-10T09:42:37.000Z,24.18
2019-06-10T09:43:37.000Z,24.29
2019-06-10T09:44:35.000Z,24.33
2019-06-10T09:45:33.000Z,24.34
2019-06-10T09:46:32.000Z,24.35
2019-06-10T09:47:31.000Z,24.39
2019-06-10T09:48:30.000Z,24.51
2019-06-10T09:49:28.000Z,24.62
2019-06-10T09:50:27.000Z,24.75
2019-06-10T09:51:27.000Z,24.86
2019-06-10T09:52:25.000Z,24.93
2019-06-10T09:53:23.000Z,24.95
2019-06-10T09:54:23.000Z,24.98
2019-06-10T09:55:21.000Z,24.95
2019-06-10T09:56:20.000Z,24.88
2019-06-10T09:57:19.000Z,24.80
2019-06-10T09:58:18.000Z,24.74
2019-06-10T10:00:14.000Z,24.75
2019-06-10T10:01:14.000Z,24.92
2019-06-10T10:02:12.000Z,25.23
2019-06-10T10:03:12.000Z,25.56
2019-06-10T10:04:10.000Z,25.97
2019-06-10T10:05:08.000Z,26.41
2019-06-10T10:06:07.000Z,26.72
2019-06-10T10:07:06.000Z,26.88
2019-06-10T10:08:05.000Z,26.89
2019-06-10T10:09:04.000Z,26.88
2019-06-10T10:10:03.000Z,26.90
2019-06-10T10:12:01.000Z,27.03
2019-06-10T10:12:58.000Z,27.04
2019-06-10T10:13:57.000Z,27.01
2019-06-10T10:14:56.000Z,26.95
2019-06-10T10:15:55.000Z,26.87
2019-06-10T10:16:53.000Z,26.77
2019-06-10T10:17:52.000Z,26.65
2019-06-10T10:18:51.000Z,26.51
2019-06-10T10:19:49.000Z,26.36
2019-06-10T10:21:48.000Z,26.15
2019-06-10T10:22:47.000Z,26.03
2019-06-10T10:23:45.000Z,25.94
2019-06-10T10:24:43.000Z,25.87
2019-06-10T10:25:42.000Z,25.87
2019-06-10T10:26:41.000Z,25.91
2019-06-10T10:27:40.000Z,25.94
2019-06-10T10:28:38.000Z,25.91
2019-06-10T10:30:35.000Z,25.78
2019-06-10T10:31:34.000Z,25.69
2019-06-10T10:32:33.000Z,25.59
2019-06-10T10:33:33.000Z,25.49
2019-06-10T10:34:30.000Z,25.37
2019-06-10T10:35:29.000Z,25.27
2019-06-10T10:36:28.000Z,25.15
2019-06-10T10:37:26.000Z,25.01
2019-06-10T10:38:25.000Z,24.89
2019-06-10T10:39:24.000Z,24.74
2019-06-10T10:41:21.000Z,24.49
2019-06-10T10:43:19.000Z,24.27
2019-06-10T10:45:17.000Z,24.19
2019-06-10T10:46:15.000Z,24.22
2019-06-10T10:47:13.000Z,24.29
2019-06-10T10:48:13.000Z,24.41
2019-06-10T10:49:11.000Z,24.59
2019-06-10T10:50:11.000Z,24.83
2019-06-10T10:51:08.000Z,25.07
2019-06-10T10:52:07.000Z,25.37
2019-06-10T10:53:06.000Z,25.83
2019-06-10T10:54:05.000Z,26.44
2019-06-10T10:55:03.000Z,27.15
2019-06-10T10:56:02.000Z,27.85
2019-06-10T10:57:59.000Z,28.88
2019-06-10T10:58:58.000Z,29.19
2019-06-10T10:59:58.000Z,29.36
2019-06-10T11:00:57.000Z,29.51
2019-06-10T11:01:55.000Z,29.66
2019-06-10T11:02:54.000Z,29.71
2019-06-10T11:03:53.000Z,29.78
2019-06-10T11:04:52.000Z,29.93
2019-06-10T11:05:51.000Z,30.10
2019-06-10T11:06:49.000Z,30.34
2019-06-10T11:07:47.000Z,30.57
2019-06-10T11:08:46.000Z,30.73
2019-06-10T11:10:44.000Z,31.01
2019-06-10T11:11:41.000Z,31.14
2019-06-10T11:12:41.000Z,31.27
2019-06-10T11:13:39.000Z,31.34
2019-06-10T11:14:38.000Z,31.27
2019-06-10T11:15:36.000Z,31.10
2019-06-10T11:16:34.000Z,30.94
2019-06-10T11:17:34.000Z,30.78
2019-06-10T11:18:33.000Z,30.65
2019-06-10T11:20:30.000Z,30.29
2019-06-10T11:21:29.000Z,30.06
2019-06-10T11:22:27.000Z,29.79
2019-06-10T11:23:25.000Z,29.53
2019-06-10T11:24:24.000Z,29.29
2019-06-10T11:25:22.000Z,29.09
2019-06-10T11:26:21.000Z,28.92
2019-06-10T11:27:21.000Z,28.78
2019-06-10T11:28:19.000Z,28.64
2019-06-10T11:29:18.000Z,28.52
2019-06-10T11:30:16.000Z,28.43
2019-06-10T11:31:14.000Z,28.38
2019-06-10T11:32:13.000Z,28.33
2019-06-10T11:33:12.000Z,28.27
2019-06-10T11:34:11.000Z,28.19
2019-06-10T11:35:09.000Z,28.15
2019-06-10T11:36:09.000Z,28.14
2019-06-10T11:37:07.000Z,28.17
2019-06-10T11:38:06.000Z,28.23
2019-06-10T11:40:02.000Z,28.45
2019-06-10T11:42:00.000Z,28.85
2019-06-10T11:42:59.000Z,29.08
2019-06-10T11:43:59.000Z,29.38
2019-06-10T11:44:57.000Z,29.71
2019-06-10T11:45:56.000Z,30.01
2019-06-10T11:46:54.000Z,30.27
2019-06-10T11:47:54.000Z,30.52
2019-06-10T11:48:52.000Z,30.70
2019-06-10T11:49:52.000Z,30.83
2019-06-10T11:50:51.000Z,30.92
2019-06-10T11:51:49.000Z,30.98
2019-06-10T11:52:49.000Z,31.01
2019-06-10T11:53:47.000Z,30.97
2019-06-10T11:54:46.000Z,30.98
2019-06-10T11:55:45.000Z,30.95
2019-06-10T11:56:44.000Z,30.93
2019-06-10T11:57:43.000Z,30.97
2019-06-10T11:58:42.000Z,30.96
2019-06-10T12:00:40.000Z,30.96
2019-06-10T12:02:38.000Z,31.02
2019-06-10T12:03:36.000Z,31.09
2019-06-10T12:04:35.000Z,31.20
2019-06-10T12:05:34.000Z,31.22
2019-06-10T12:06:33.000Z,31.26
2019-06-10T12:07:32.000Z,31.27
2019-06-10T12:08:30.000Z,31.26
2019-06-10T12:09:29.000Z,31.30
2019-06-10T12:10:27.000Z,31.32
2019-06-10T12:11:27.000Z,31.30
2019-06-10T12:12:25.000Z,31.31
2019-06-10T12:13:23.000Z,31.39
2019-06-10T12:15:20.000Z,31.70
2019-06-10T12:16:19.000Z,31.84
2019-06-10T12:17:18.000Z,31.96
2019-06-10T12:18:16.000Z,32.00
2019-06-10T12:20:14.000Z,31.89
2019-06-10T12:21:13.000Z,31.89
2019-06-10T12:22:12.000Z,31.93
2019-06-10T12:23:10.000Z,31.99
2019-06-10T12:24:09.000Z,32.01
2019-06-10T12:26:07.000Z,31.95
2019-06-10T12:28:03.000Z,31.88
2019-06-10T12:29:02.000Z,31.83
2019-06-10T12:31:00.000Z,31.92
2019-06-10T12:31:59.000Z,32.02
2019-06-10T12:32:58.000Z,32.14
2019-06-10T12:33:56.000Z,32.17
2019-06-10T12:34:55.000Z,32.17
2019-06-10T12:35:54.000Z,32.25
2019-06-10T12:37:00.000Z,32.31
2019-06-10T12:37:52.000Z,32.34
2019-06-10T12:38:50.000Z,32.34
2019-06-10T12:39:48.000Z,32.33
2019-06-10T12:40:47.000Z,32.26
2019-06-10T12:41:46.000Z,32.14
2019-06-10T12:42:45.000Z,32.13
2019-06-10T12:43:43.000Z,32.33
2019-06-10T12:44:42.000Z,32.59
2019-06-10T12:45:40.000Z,32.91
2019-06-10T12:46:39.000Z,33.14
2019-06-10T12:47:38.000Z,33.30
2019-06-10T12:48:36.000Z,33.44
2019-06-10T12:49:35.000Z,33.56
2019-06-10T12:51:33.000Z,33.68
2019-06-10T12:52:31.000Z,33.63
2019-06-10T12:53:31.000Z,33.64
2019-06-10T12:55:29.000Z,33.85
2019-06-10T12:56:27.000Z,33.96
2019-06-10T12:57:25.000Z,34.18
2019-06-10T12:58:24.000Z,34.40
2019-06-10T12:59:24.000Z,34.65
2019-06-10T13:01:20.000Z,35.29
2019-06-10T13:02:19.000Z,35.64
2019-06-10T13:03:18.000Z,35.98
2019-06-10T13:04:18.000Z,36.32
2019-06-10T13:05:16.000Z,36.58
2019-06-10T13:06:15.000Z,36.82
2019-06-10T13:07:14.000Z,36.96
2019-06-10T13:08:12.000Z,37.06
2019-06-10T13:10:10.000Z,37.20
2019-06-10T13:11:08.000Z,37.14
2019-06-10T13:12:08.000Z,36.99
2019-06-10T13:13:07.000Z,36.79
2019-06-10T13:14:05.000Z,36.52
2019-06-10T13:15:04.000Z,36.25
2019-06-10T13:16:03.000Z,35.92
2019-06-10T13:18:00.000Z,35.30
2019-06-10T13:18:58.000Z,34.98
2019-06-10T13:19:58.000Z,34.77
2019-06-10T13:20:57.000Z,34.64
2019-06-10T13:21:56.000Z,34.59
2019-06-10T13:22:53.000Z,34.59
2019-06-10T13:23:53.000Z,34.58
2019-06-10T13:24:51.000Z,34.56
2019-06-10T13:25:49.000Z,34.57
2019-06-10T13:26:49.000Z,34.58
2019-06-10T13:27:47.000Z,34.52
2019-06-10T13:28:46.000Z,34.38
2019-06-10T13:29:44.000Z,34.22
2019-06-10T13:30:43.000Z,34.14
2019-06-10T13:31:41.000Z,34.14
2019-06-10T13:32:40.000Z,34.18
2019-06-10T13:33:40.000Z,34.24
2019-06-10T13:34:38.000Z,34.27
2019-06-10T13:35:36.000Z,34.30
2019-06-10T13:36:36.000Z,34.38
2019-06-10T13:37:35.000Z,34.47
2019-06-10T13:38:33.000Z,34.50
2019-06-10T13:39:31.000Z,34.45
2019-06-10T13:40:31.000Z,34.42
2019-06-10T13:41:29.000Z,34.40
2019-06-10T13:42:29.000Z,34.32
2019-06-10T13:43:27.000Z,34.18
2019-06-10T13:44:25.000Z,34.05
2019-06-10T13:45:24.000Z,33.92
2019-06-10T13:46:23.000Z,33.85
2019-06-10T13:47:21.000Z,33.77
2019-06-10T13:48:20.000Z,33.68
2019-06-10T13:49:18.000Z,33.58
2019-06-10T13:50:17.000Z,33.59
2019-06-10T13:51:16.000Z,33.56
2019-06-10T13:52:16.000Z,33.63
2019-06-10T13:53:13.000Z,33.78
2019-06-10T13:54:18.000Z,34.03
2019-06-10T13:55:12.000Z,34.20
2019-06-10T13:56:10.000Z,34.34
2019-06-10T13:57:08.000Z,34.40
2019-06-10T13:58:07.000Z,34.43
2019-06-10T14:00:06.000Z,34.37
2019-06-10T14:02:02.000Z,34.32
2019-06-10T14:04:00.000Z,34.32
2019-06-10T14:04:58.000Z,34.33
2019-06-10T14:05:57.000Z,34.43
2019-06-10T14:06:57.000Z,34.51
2019-06-10T14:07:54.000Z,34.52
2019-06-10T14:08:54.000Z,34.53
2019-06-10T14:09:52.000Z,34.50
2019-06-10T14:10:51.000Z,34.49
2019-06-10T14:11:49.000Z,34.46
2019-06-10T14:12:48.000Z,34.41
2019-06-10T14:13:48.000Z,34.40
2019-06-10T14:14:47.000Z,34.36
2019-06-10T14:15:46.000Z,34.32
2019-06-10T14:16:43.000Z,34.27
2019-06-10T14:17:43.000Z,34.24
2019-06-10T14:18:41.000Z,34.25
2019-06-10T14:19:40.000Z,34.29
2019-06-10T14:20:39.000Z,34.34
2019-06-10T14:21:37.000Z,34.41
2019-06-10T14:22:36.000Z,34.48
2019-06-10T14:23:34.000Z,34.50
2019-06-10T14:24:34.000Z,34.49
2019-06-10T14:25:32.000Z,34.46
2019-06-10T14:26:30.000Z,34.42
2019-06-10T14:27:29.000Z,34.36
2019-06-10T14:28:27.000Z,34.30
2019-06-10T14:30:25.000Z,34.10
2019-06-10T14:31:24.000Z,33.94
2019-06-10T14:32:22.000Z,33.74
2019-06-10T14:33:21.000Z,33.52
2019-06-10T14:34:19.000Z,33.26
2019-06-10T14:35:18.000Z,33.16
2019-06-10T14:36:17.000Z,33.04
2019-06-10T14:37:17.000Z,32.97
2019-06-10T14:38:14.000Z,33.00
2019-06-10T14:39:13.000Z,33.03
2019-06-10T14:40:12.000Z,33.01
2019-06-10T14:41:11.000Z,32.97
2019-06-10T14:42:09.000Z,32.90
2019-06-10T14:43:08.000Z,32.79
2019-06-10T14:44:08.000Z,32.69
2019-06-10T14:45:06.000Z,32.58
2019-06-10T14:46:04.000Z,32.47
2019-06-10T14:47:04.000Z,32.34
2019-06-10T14:49:01.000Z,32.10
2019-06-10T14:49:59.000Z,31.99
2019-06-10T14:51:56.000Z,31.75
2019-06-10T14:52:55.000Z,31.63
2019-06-10T14:53:53.000Z,31.52
2019-06-10T14:54:53.000Z,31.43
2019-06-10T14:55:52.000Z,31.33
2019-06-10T14:56:51.000Z,31.25
2019-06-10T14:57:50.000Z,31.17
2019-06-10T14:58:49.000Z,31.09
2019-06-10T15:00:44.000Z,31.00
2019-06-10T15:02:43.000Z,30.95
2019-06-10T15:03:41.000Z,30.94
2019-06-10T15:04:39.000Z,30.91
2019-06-10T15:05:38.000Z,30.85
2019-06-10T15:06:38.000Z,30.81
2019-06-10T15:07:36.000Z,30.75
2019-06-10T15:08:34.000Z,30.66
2019-06-10T15:09:33.000Z,30.58
2019-06-10T15:10:32.000Z,30.49
2019-06-10T15:11:30.000Z,30.41
2019-06-10T15:12:30.000Z,30.33
2019-06-10T15:13:27.000Z,30.26
2019-06-10T15:14:26.000Z,30.16
2019-06-10T15:15:26.000Z,30.12
2019-06-10T15:16:23.000Z,30.06
2019-06-10T15:17:22.000Z,30.00
2019-06-10T15:18:21.000Z,29.92
2019-06-10T15:19:19.000Z,29.85
2019-06-10T15:20:19.000Z,29.79
2019-06-10T15:21:17.000Z,29.74
2019-06-10T15:22:17.000Z,29.69
2019-06-10T15:23:15.000Z,29.63
2019-06-10T15:24:13.000Z,29.56
2019-06-10T15:25:12.000Z,29.50
2019-06-10T15:26:11.000Z,29.46
2019-06-10T15:27:10.000Z,29.43
2019-06-10T15:28:08.000Z,29.41
2019-06-10T15:29:07.000Z,29.38
2019-06-10T15:31:05.000Z,29.32
2019-06-10T15:32:03.000Z,29.29
2019-06-10T15:33:02.000Z,29.25
2019-06-10T15:34:59.000Z,29.16
2019-06-10T15:36:57.000Z,29.09
2019-06-10T15:37:57.000Z,29.08
2019-06-10T15:38:54.000Z,29.06
2019-06-10T15:39:53.000Z,29.04
2019-06-10T15:40:51.000Z,29.01
2019-06-10T15:41:50.000Z,28.96
2019-06-10T15:42:49.000Z,28.89
2019-06-10T15:43:48.000Z,28.84
2019-06-10T15:44:46.000Z,28.80
2019-06-10T15:45:45.000Z,28.76
2019-06-10T15:46:45.000Z,28.70
2019-06-10T15:47:42.000Z,28.65
2019-06-10T15:48:42.000Z,28.59
2019-06-10T15:50:40.000Z,28.47
2019-06-10T15:51:37.000Z,28.41
2019-06-10T15:52:36.000Z,28.38
2019-06-10T15:53:34.000Z,28.34
2019-06-10T15:54:33.000Z,28.31
2019-06-10T15:55:31.000Z,28.30
2019-06-10T15:56:30.000Z,28.26
2019-06-10T15:57:30.000Z,28.20
2019-06-10T15:58:28.000Z,28.14
2019-06-10T16:00:26.000Z,27.98
2019-06-10T16:02:23.000Z,27.78
2019-06-10T16:03:21.000Z,27.65
2019-06-10T16:04:21.000Z,27.53
2019-06-10T16:05:18.000Z,27.41
2019-06-10T16:06:18.000Z,27.30
2019-06-10T16:07:17.000Z,27.20
2019-06-10T16:08:15.000Z,27.13
2019-06-10T16:10:12.000Z,26.93
2019-06-10T16:11:12.000Z,26.84
2019-06-10T16:12:09.000Z,26.74
2019-06-10T16:13:09.000Z,26.65
2019-06-10T16:14:07.000Z,26.57
2019-06-10T16:15:06.000Z,26.48
2019-06-10T16:16:05.000Z,26.35
2019-06-10T16:17:06.000Z,26.24
2019-06-10T16:18:04.000Z,26.15
2019-06-10T16:20:00.000Z,25.98
2019-06-10T16:21:59.000Z,25.81
2019-06-10T16:22:56.000Z,25.73
2019-06-10T16:23:55.000Z,25.66
2019-06-10T16:24:54.000Z,25.59
2019-06-10T16:25:53.000Z,25.52
2019-06-10T16:27:51.000Z,25.36
2019-06-10T16:28:50.000Z,25.31
2019-06-10T16:29:48.000Z,25.26
2019-06-10T16:31:45.000Z,25.13
2019-06-10T16:33:43.000Z,25.05
2019-06-10T16:34:41.000Z,25.00
2019-06-10T16:35:41.000Z,24.95
2019-06-10T16:36:39.000Z,24.91
2019-06-10T16:37:38.000Z,24.85
2019-06-10T16:38:36.000Z,24.81
2019-06-10T16:39:36.000Z,24.75
2019-06-10T16:40:34.000Z,24.70
2019-06-10T16:41:32.000Z,24.65
2019-06-10T16:42:31.000Z,24.60
2019-06-10T16:43:30.000Z,24.56
2019-06-10T16:44:30.000Z,24.52
2019-06-10T16:45:27.000Z,24.46
2019-06-10T16:46:26.000Z,24.43
2019-06-10T16:47:25.000Z,24.37
2019-06-10T16:48:23.000Z,24.29
2019-06-10T16:49:22.000Z,24.20
2019-06-10T16:51:20.000Z,23.98
2019-06-10T16:52:18.000Z,23.88
2019-06-10T16:53:18.000Z,23.78
2019-06-10T16:54:17.000Z,23.70
2019-06-10T16:55:15.000Z,23.61
2019-06-10T16:56:13.000Z,23.52
2019-06-10T16:57:12.000Z,23.43
2019-06-10T16:58:12.000Z,23.35
2019-06-10T16:59:09.000Z,23.27
2019-06-10T17:01:08.000Z,23.13
2019-06-10T17:02:06.000Z,23.02
2019-06-10T17:03:04.000Z,22.92
2019-06-10T17:04:04.000Z,22.82
2019-06-10T17:05:02.000Z,22.73
2019-06-10T17:07:00.000Z,22.55
2019-06-10T17:07:58.000Z,22.46
2019-06-10T17:08:56.000Z,22.37
2019-06-10T17:09:55.000Z,22.29
2019-06-10T17:11:52.000Z,22.13
2019-06-10T17:12:52.000Z,22.06
2019-06-10T17:13:51.000Z,21.98
2019-06-10T17:14:49.000Z,21.91
2019-06-10T17:15:47.000Z,21.86
2019-06-10T17:16:46.000Z,21.79
2019-06-10T17:17:46.000Z,21.74
2019-06-10T17:18:46.000Z,21.66
2019-06-10T17:19:43.000Z,21.61
2019-06-10T17:21:40.000Z,21.49
2019-06-10T17:22:40.000Z,21.46
2019-06-10T17:23:39.000Z,21.42
2019-06-10T17:24:37.000Z,21.39
2019-06-10T17:25:36.000Z,21.36
2019-06-10T17:26:34.000Z,21.32
2019-06-10T17:27:34.000Z,21.29
2019-06-10T17:28:32.000Z,21.25
2019-06-10T17:29:36.000Z,21.23
2019-06-10T17:31:28.000Z,21.17
2019-06-10T17:33:25.000Z,21.13
2019-06-10T17:35:24.000Z,21.08
2019-06-10T17:36:21.000Z,21.08
2019-06-10T17:37:20.000Z,21.04
2019-06-10T17:38:18.000Z,21.02
2019-06-10T17:39:17.000Z,20.97
2019-06-10T17:41:15.000Z,20.90
2019-06-10T17:43:13.000Z,20.83
2019-06-10T17:44:18.000Z,20.77
2019-06-10T17:45:11.000Z,20.74
2019-06-10T17:46:09.000Z,20.69
2019-06-10T17:47:07.000Z,20.66
2019-06-10T17:48:07.000Z,20.61
2019-06-10T17:49:04.000Z,20.56
2019-06-10T17:51:03.000Z,20.49
2019-06-10T17:52:59.000Z,20.42
2019-06-10T17:53:59.000Z,20.38
2019-06-10T17:54:58.000Z,20.36
2019-06-10T17:55:56.000Z,20.32
2019-06-10T17:57:53.000Z,20.26
2019-06-10T17:58:52.000Z,20.22
2019-06-10T18:00:50.000Z,20.17
2019-06-10T18:02:47.000Z,20.11
2019-06-10T18:03:46.000Z,20.08
2019-06-10T18:04:44.000Z,20.05
2019-06-10T18:05:42.000Z,20.03
2019-06-10T18:06:42.000Z,20.01
2019-06-10T18:07:41.000Z,19.99
2019-06-10T18:08:39.000Z,19.97